createdAt,value
2023-05-24T00:00:11.350Z,28.33
2023-05-24T00:02:42.955Z,26.90
2023-05-24T00:05:12.302Z,28.10
2023-05-24T00:07:40.916Z,21.50
2023-05-24T00:10:11.748Z,25.90
2023-05-24T00:12:40.285Z,25.97
2023-05-24T00:15:10.281Z,28.43
2023-05-24T00:17:42.981Z,24.13
2023-05-24T00:20:14.521Z,26.60
2023-05-24T00:22:43.712Z,25.33
2023-05-24T00:25:12.167Z,27.30
2023-05-24T00:27:40.883Z,29.87
2023-05-24T00:30:10.187Z,30.87
2023-05-24T00:32:40.178Z,28.90
2023-05-24T00:35:09.763Z,23.90
2023-05-24T00:37:41.963Z,24.93
2023-05-24T00:40:11.585Z,30.90
2023-05-24T00:42:40.188Z,31.10
2023-05-24T00:45:10.427Z,25.00
2023-05-24T00:47:40.692Z,26.30
2023-05-24T00:50:11.892Z,27.20
2023-05-24T00:52:41.163Z,25.63
2023-05-24T00:55:11.478Z,25.70
2023-05-24T00:57:41.163Z,29.40
2023-05-24T01:00:11.981Z,26.13
2023-05-24T01:02:41.983Z,28.13
2023-05-24T01:05:13.741Z,28.57
2023-05-24T01:07:56.000Z,22.67
2023-05-24T01:10:33.817Z,25.23
2023-05-24T01:13:11.070Z,23.33
2023-05-24T01:15:50.872Z,25.27
2023-05-24T01:18:30.456Z,25.10
2023-05-24T01:21:17.933Z,22.20
2023-05-24T01:23:56.960Z,27.57
2023-05-24T01:26:43.816Z,24.23
2023-05-24T01:29:15.300Z,25.60
2023-05-24T01:31:44.508Z,24.43
2023-05-24T01:34:13.683Z,25.40
2023-05-24T01:36:42.090Z,27.97
2023-05-24T01:39:11.401Z,21.70
2023-05-24T01:41:46.255Z,20.43
2023-05-24T01:44:28.857Z,27.70
2023-05-24T01:47:06.382Z,28.43
2023-05-24T01:49:44.153Z,23.13
2023-05-24T01:52:17.742Z,31.20
2023-05-24T01:54:55.101Z,18.83
2023-05-24T01:57:24.970Z,26.37
2023-05-24T01:59:56.776Z,25.10
2023-05-24T02:02:25.484Z,25.03
2023-05-24T02:04:54.054Z,21.33
2023-05-24T02:07:22.414Z,24.37
2023-05-24T02:09:50.830Z,26.17
2023-05-24T02:12:19.256Z,24.30
2023-05-24T02:14:51.003Z,25.60
2023-05-24T02:17:21.027Z,28.53
2023-05-24T02:19:49.585Z,23.63
2023-05-24T02:22:18.025Z,21.70
2023-05-24T02:24:48.572Z,23.27
2023-05-24T02:27:17.185Z,23.93
2023-05-24T02:29:47.824Z,25.63
2023-05-24T02:32:16.389Z,19.70
2023-05-24T02:34:46.493Z,26.23
2023-05-24T02:37:15.032Z,21.87
2023-05-24T02:39:43.676Z,20.93
2023-05-24T02:42:12.265Z,23.90
2023-05-24T02:44:42.934Z,21.73
2023-05-24T02:47:11.265Z,23.77
2023-05-24T02:49:39.657Z,20.87
2023-05-24T02:52:09.575Z,23.60
2023-05-24T02:54:38.660Z,23.70
2023-05-24T02:57:09.139Z,26.37
2023-05-24T02:59:38.322Z,27.17
2023-05-24T03:02:08.111Z,27.03
2023-05-24T03:04:37.177Z,23.57
2023-05-24T03:07:06.440Z,26.57
2023-05-24T03:09:36.347Z,24.03
2023-05-24T03:12:05.203Z,21.33
2023-05-24T03:14:33.716Z,20.23
2023-05-24T03:17:02.256Z,24.83
2023-05-24T03:19:30.667Z,26.03
2023-05-24T03:21:59.138Z,17.57
2023-05-24T03:24:27.556Z,22.67
2023-05-24T03:26:57.339Z,18.30
2023-05-24T03:29:26.046Z,18.40
2023-05-24T03:31:54.468Z,19.50
2023-05-24T03:34:22.979Z,21.50
2023-05-24T03:36:51.557Z,18.20
2023-05-24T03:39:19.981Z,18.83
2023-05-24T03:41:48.425Z,17.00
2023-05-24T03:44:19.910Z,22.07
2023-05-24T03:46:48.298Z,20.80
2023-05-24T03:49:16.696Z,20.13
2023-05-24T03:51:45.310Z,20.23
2023-05-24T03:54:13.786Z,20.57
2023-05-24T03:56:42.126Z,22.63
2023-05-24T03:59:11.556Z,18.17
2023-05-24T04:01:41.405Z,18.40
2023-05-24T04:04:09.776Z,17.47
2023-05-24T04:06:41.928Z,17.60
2023-05-24T04:09:10.300Z,18.07
2023-05-24T04:11:39.165Z,18.67
2023-05-24T04:14:07.836Z,17.53
2023-05-24T04:16:36.333Z,19.03
2023-05-24T04:19:06.305Z,17.23
2023-05-24T04:21:37.020Z,16.43
2023-05-24T04:24:06.221Z,16.80
2023-05-24T04:26:37.758Z,18.00
2023-05-24T04:29:07.874Z,13.33
2023-05-24T04:31:37.035Z,21.93
2023-05-24T04:34:08.160Z,18.47
2023-05-24T04:36:37.345Z,18.37
2023-05-24T04:39:06.381Z,20.03
2023-05-24T04:41:36.236Z,16.97
2023-05-24T04:44:04.809Z,19.97
2023-05-24T04:46:36.349Z,18.13
2023-05-24T04:49:08.608Z,19.47
2023-05-24T04:51:38.858Z,17.73
2023-05-24T04:54:09.856Z,20.00
2023-05-24T04:56:39.329Z,22.40
2023-05-24T04:59:09.609Z,16.77
2023-05-24T05:01:38.589Z,21.73
2023-05-24T05:04:08.929Z,19.37
2023-05-24T05:06:39.700Z,23.90
2023-05-24T05:09:09.614Z,20.30
2023-05-24T05:11:40.617Z,20.13
2023-05-24T05:14:10.161Z,17.63
2023-05-24T05:16:39.575Z,17.93
2023-05-24T05:19:09.830Z,18.43
2023-05-24T05:21:39.830Z,20.13
2023-05-24T05:24:09.308Z,19.70
2023-05-24T05:26:38.189Z,18.33
2023-05-24T05:29:06.690Z,17.33
2023-05-24T05:31:35.297Z,18.27
2023-05-24T05:34:03.781Z,17.37
2023-05-24T05:36:34.224Z,22.00
2023-05-24T05:39:02.643Z,13.37
2023-05-24T05:41:31.034Z,20.57
2023-05-24T05:43:59.388Z,15.37
2023-05-24T05:46:27.979Z,17.53
2023-05-24T05:48:56.486Z,13.23
2023-05-24T05:51:25.248Z,16.83
2023-05-24T05:53:55.272Z,16.33
2023-05-24T05:56:23.769Z,15.10
2023-05-24T05:58:52.229Z,20.43
2023-05-24T06:01:20.855Z,18.67
2023-05-24T06:03:49.587Z,19.23
2023-05-24T06:06:18.802Z,15.73
2023-05-24T06:08:47.207Z,13.00
2023-05-24T06:11:17.122Z,14.47
2023-05-24T06:13:45.459Z,20.30
2023-05-24T06:16:14.463Z,15.00
2023-05-24T06:18:50.122Z,15.30
2023-05-24T06:21:22.872Z,14.93
2023-05-24T06:23:52.093Z,20.07
2023-05-24T06:26:22.509Z,18.20
2023-05-24T06:28:51.609Z,16.27
2023-05-24T06:31:20.406Z,16.37
2023-05-24T06:34:02.607Z,15.40
2023-05-24T06:36:34.358Z,15.13
2023-05-24T06:39:03.865Z,16.43
2023-05-24T06:41:34.233Z,10.77
2023-05-24T06:44:02.701Z,19.27
2023-05-24T06:46:31.444Z,12.13
2023-05-24T06:49:00.126Z,13.97
2023-05-24T06:51:28.757Z,14.90
2023-05-24T06:53:57.351Z,13.90
2023-05-24T06:56:27.005Z,13.43
2023-05-24T06:58:56.922Z,11.03
2023-05-24T07:01:25.351Z,14.43
2023-05-24T07:03:54.100Z,15.70
2023-05-24T07:06:22.787Z,9.77
2023-05-24T07:08:51.178Z,12.20
2023-05-24T07:11:19.883Z,10.67
2023-05-24T07:13:48.316Z,10.67
2023-05-24T07:16:18.292Z,10.20
2023-05-24T07:18:46.881Z,11.17
2023-05-24T07:21:15.344Z,11.87
2023-05-24T07:23:46.567Z,11.80
2023-05-24T07:26:15.040Z,12.07
2023-05-24T07:28:43.540Z,11.57
2023-05-24T07:31:12.173Z,13.67
2023-05-24T07:33:42.437Z,10.23
2023-05-24T07:36:10.998Z,13.33
2023-05-24T07:38:41.068Z,12.30
2023-05-24T07:41:09.472Z,12.10
2023-05-24T07:43:38.760Z,9.00
2023-05-24T07:46:10.556Z,12.23
2023-05-24T07:48:39.293Z,12.03
2023-05-24T07:51:09.449Z,9.63
2023-05-24T07:53:40.285Z,13.10
2023-05-24T07:56:09.996Z,15.87
2023-05-24T07:58:40.761Z,16.10
2023-05-24T08:01:09.375Z,14.50
2023-05-24T08:03:38.781Z,14.30
2023-05-24T08:06:10.175Z,13.63
2023-05-24T08:08:41.506Z,14.50
2023-05-24T08:11:09.977Z,13.47
2023-05-24T08:13:38.803Z,13.47
2023-05-24T08:16:08.653Z,11.80
2023-05-24T08:18:37.751Z,9.50
2023-05-24T08:21:09.047Z,10.23
2023-05-24T08:23:38.925Z,12.27
2023-05-24T08:26:09.154Z,9.33
2023-05-24T08:28:37.871Z,11.03
2023-05-24T08:31:07.372Z,10.00
2023-05-24T08:33:36.676Z,13.13
2023-05-24T08:36:05.477Z,11.00
2023-05-24T08:38:33.894Z,9.40
2023-05-24T08:41:07.300Z,10.70
2023-05-24T08:43:36.455Z,10.27
2023-05-24T08:46:07.285Z,11.67
2023-05-24T08:48:37.567Z,9.57
2023-05-24T08:51:07.604Z,11.73
2023-05-24T08:53:39.410Z,9.77
2023-05-24T08:56:10.655Z,8.27
2023-05-24T08:58:40.317Z,9.00
2023-05-24T09:01:09.225Z,8.60
2023-05-24T09:03:39.726Z,10.90
2023-05-24T09:06:10.689Z,9.83
2023-05-24T09:08:40.596Z,10.07
2023-05-24T09:11:12.825Z,9.87
2023-05-24T09:13:41.454Z,11.33
2023-05-24T09:16:10.494Z,13.97
2023-05-24T09:18:39.144Z,11.00
2023-05-24T09:21:08.532Z,8.33
2023-05-24T09:23:37.938Z,11.03
2023-05-24T09:26:11.841Z,8.37
2023-05-24T09:28:41.926Z,10.70
2023-05-24T09:31:10.731Z,12.40
2023-05-24T09:33:40.993Z,9.23
2023-05-24T09:36:10.905Z,10.80
2023-05-24T09:38:39.472Z,9.90
2023-05-24T09:41:11.179Z,11.40
2023-05-24T09:43:50.038Z,7.27
2023-05-24T09:46:19.726Z,8.17
2023-05-24T09:48:58.903Z,8.20
2023-05-24T09:51:28.359Z,11.40
2023-05-24T09:53:59.527Z,11.30
2023-05-24T09:56:32.642Z,8.80
2023-05-24T09:59:08.235Z,7.63
2023-05-24T10:01:37.000Z,12.63
2023-05-24T10:04:10.032Z,12.33
2023-05-24T10:06:45.958Z,10.33
2023-05-24T10:09:19.231Z,11.93
2023-05-24T10:11:58.488Z,15.30
2023-05-24T10:14:39.098Z,12.43
2023-05-24T10:17:13.637Z,12.63
2023-05-24T10:19:48.204Z,10.53
2023-05-24T10:22:26.938Z,10.63
2023-05-24T10:25:05.550Z,12.87
2023-05-24T10:27:42.734Z,10.20
2023-05-24T10:30:24.674Z,11.10
2023-05-24T10:32:57.597Z,10.37
2023-05-24T10:35:35.035Z,8.40
2023-05-24T10:38:12.658Z,10.70
2023-05-24T10:40:49.233Z,9.27
2023-05-24T10:43:20.034Z,8.40
2023-05-24T10:45:53.337Z,9.90
2023-05-24T10:48:37.393Z,7.70
2023-05-24T10:51:33.650Z,9.57
2023-05-24T10:54:17.643Z,8.07
2023-05-24T10:56:48.416Z,8.93
2023-05-24T10:59:30.853Z,8.00
2023-05-24T11:02:01.298Z,7.77
2023-05-24T11:04:35.222Z,8.30
2023-05-24T11:07:06.544Z,8.67
2023-05-24T11:09:35.322Z,8.50
2023-05-24T11:12:07.701Z,8.40
2023-05-24T11:14:40.673Z,10.00
2023-05-24T11:17:10.796Z,12.63
2023-05-24T11:19:47.132Z,9.70
2023-05-24T11:22:16.374Z,8.93
2023-05-24T11:24:45.081Z,8.93
2023-05-24T11:27:14.803Z,9.63
2023-05-24T11:29:45.964Z,12.33
2023-05-24T11:32:19.015Z,8.87
2023-05-24T11:34:48.753Z,6.60
2023-05-24T11:37:18.867Z,13.20
2023-05-24T11:39:53.418Z,10.03
2023-05-24T11:42:24.699Z,12.53
2023-05-24T11:44:55.426Z,10.73
2023-05-24T11:47:25.103Z,10.17
2023-05-24T11:49:53.647Z,12.80
2023-05-24T11:52:22.264Z,10.73
2023-05-24T11:54:51.855Z,11.07
2023-05-24T11:57:27.355Z,10.63
2023-05-24T11:59:58.559Z,14.03
2023-05-24T12:02:31.189Z,8.80
2023-05-24T12:05:09.942Z,7.13
2023-05-24T12:07:40.873Z,10.47
2023-05-24T12:10:14.692Z,11.23
2023-05-24T12:12:46.358Z,12.10
2023-05-24T12:15:18.625Z,9.37
2023-05-24T12:17:51.497Z,7.47
2023-05-24T12:20:21.843Z,11.47
2023-05-24T12:22:51.903Z,10.40
2023-05-24T12:25:22.888Z,9.53
2023-05-24T12:27:56.206Z,8.17
2023-05-24T12:30:28.687Z,8.93
2023-05-24T12:32:57.816Z,10.03
2023-05-24T12:35:26.545Z,10.47
2023-05-24T12:38:01.173Z,9.30
2023-05-24T12:40:34.496Z,6.20
2023-05-24T12:43:03.741Z,8.67
2023-05-24T12:45:33.751Z,9.50
2023-05-24T12:48:03.018Z,8.27
2023-05-24T12:50:31.964Z,9.13
2023-05-24T12:53:00.331Z,10.17
2023-05-24T12:55:30.034Z,9.03
2023-05-24T12:58:01.838Z,11.73
2023-05-24T13:00:31.274Z,10.73
2023-05-24T13:03:01.089Z,6.17
2023-05-24T13:05:31.125Z,10.77
2023-05-24T13:07:59.750Z,9.53
2023-05-24T13:10:28.785Z,10.53
2023-05-24T13:12:57.488Z,10.63
2023-05-24T13:15:27.608Z,11.97
2023-05-24T13:17:56.398Z,9.20
2023-05-24T13:20:27.279Z,14.27
2023-05-24T13:22:57.210Z,11.10
2023-05-24T13:25:27.684Z,10.80
2023-05-24T13:27:57.040Z,12.20
2023-05-24T13:30:28.829Z,11.67
2023-05-24T13:32:59.575Z,10.60
2023-05-24T13:35:33.919Z,11.63
2023-05-24T13:38:03.328Z,8.70
2023-05-24T13:40:33.761Z,12.47
2023-05-24T13:43:04.122Z,10.87
2023-05-24T13:45:33.973Z,11.57
2023-05-24T13:48:04.207Z,10.10
2023-05-24T13:50:37.223Z,9.33
2023-05-24T13:53:08.281Z,11.97
2023-05-24T13:55:40.290Z,7.47
2023-05-24T13:58:10.152Z,8.10
2023-05-24T14:00:42.750Z,10.43
2023-05-24T14:03:13.446Z,13.80
2023-05-24T14:05:45.103Z,10.77
2023-05-24T14:08:14.440Z,11.77
2023-05-24T14:10:43.482Z,9.30
2023-05-24T14:13:34.284Z,9.30
2023-05-24T14:16:01.774Z,12.10
2023-05-24T14:18:31.527Z,11.53
2023-05-24T14:21:02.671Z,8.83
2023-05-24T14:23:35.327Z,11.13
2023-05-24T14:26:04.806Z,10.63
2023-05-24T14:28:40.661Z,8.57
2023-05-24T14:31:13.299Z,7.97
2023-05-24T14:33:43.092Z,8.10
2023-05-24T14:36:14.097Z,10.23
2023-05-24T14:38:45.442Z,10.63
2023-05-24T14:41:14.388Z,14.47
2023-05-24T14:43:43.769Z,9.60
2023-05-24T14:46:13.228Z,8.40
2023-05-24T14:48:50.041Z,9.07
2023-05-24T14:51:22.515Z,9.03
2023-05-24T14:53:52.138Z,10.87
2023-05-24T14:56:25.776Z,9.23
2023-05-24T14:58:55.344Z,8.10
2023-05-24T15:01:25.967Z,8.90
2023-05-24T15:03:54.790Z,5.67
2023-05-24T15:06:25.208Z,6.55
2023-05-24T15:08:56.449Z,9.60
2023-05-24T15:11:29.560Z,7.03
2023-05-24T15:13:59.331Z,7.43
2023-05-24T15:16:41.795Z,8.40
2023-05-24T15:19:13.496Z,10.85
2023-05-24T15:21:44.526Z,10.32
2023-05-24T15:24:20.030Z,7.63
2023-05-24T15:26:51.233Z,7.68
2023-05-24T15:29:23.034Z,7.80
2023-05-24T15:31:52.506Z,6.47
2023-05-24T15:34:23.805Z,10.40
2023-05-24T15:36:58.560Z,7.40
2023-05-24T15:39:34.781Z,7.50
2023-05-24T15:42:04.964Z,6.68
2023-05-24T15:44:39.633Z,6.95
2023-05-24T15:47:10.632Z,8.80
2023-05-24T15:49:41.176Z,10.48
2023-05-24T15:52:12.184Z,10.02
2023-05-24T15:54:47.377Z,7.97
2023-05-24T15:57:17.742Z,8.70
2023-05-24T15:59:47.289Z,9.48
2023-05-24T16:02:18.697Z,11.32
2023-05-24T16:04:53.559Z,8.80
2023-05-24T16:07:26.541Z,13.63
2023-05-24T16:09:57.361Z,8.02
2023-05-24T16:12:26.894Z,10.40
2023-05-24T16:15:04.149Z,10.30
2023-05-24T16:17:37.000Z,8.15
2023-05-24T16:20:07.560Z,11.90
2023-05-24T16:22:40.931Z,12.70
2023-05-24T16:25:11.673Z,10.57
2023-05-24T16:27:40.870Z,7.07
2023-05-24T16:30:14.220Z,7.40
2023-05-24T16:32:48.112Z,8.27
2023-05-24T16:35:18.215Z,10.60
2023-05-24T16:37:49.988Z,9.57
2023-05-24T16:40:19.161Z,11.00
2023-05-24T16:42:49.087Z,8.80
2023-05-24T16:45:17.909Z,6.30
2023-05-24T16:47:53.944Z,7.47
2023-05-24T16:50:24.399Z,5.85
2023-05-24T16:52:55.410Z,8.40
2023-05-24T16:55:29.567Z,8.75
2023-05-24T16:57:59.200Z,6.57
2023-05-24T17:00:28.889Z,6.90
2023-05-24T17:02:59.517Z,9.30
2023-05-24T17:05:29.140Z,6.65
2023-05-24T17:08:01.462Z,7.22
2023-05-24T17:10:31.221Z,9.82
2023-05-24T17:13:04.415Z,7.35
2023-05-24T17:15:33.841Z,9.57
2023-05-24T17:18:03.288Z,7.30
2023-05-24T17:20:40.439Z,9.27
2023-05-24T17:23:14.518Z,9.70
2023-05-24T17:25:43.901Z,8.65
2023-05-24T17:28:17.578Z,8.05
2023-05-24T17:30:49.358Z,8.00
2023-05-24T17:33:19.052Z,10.70
2023-05-24T17:35:48.344Z,9.13
2023-05-24T17:38:22.660Z,10.77
2023-05-24T17:40:57.195Z,9.35
2023-05-24T17:43:30.151Z,8.20
2023-05-24T17:46:04.136Z,6.82
2023-05-24T17:48:34.316Z,8.52
2023-05-24T17:51:07.302Z,7.32
2023-05-24T17:53:41.507Z,8.50
2023-05-24T17:56:11.645Z,8.77
2023-05-24T17:58:41.588Z,8.27
2023-05-24T18:01:13.390Z,6.93
2023-05-24T18:03:43.221Z,9.10
2023-05-24T18:06:13.673Z,9.23
2023-05-24T18:08:45.639Z,9.85
2023-05-24T18:11:16.523Z,9.90
2023-05-24T18:13:47.176Z,8.15
2023-05-24T18:16:17.582Z,9.85
2023-05-24T18:18:51.456Z,9.68
2023-05-24T18:21:21.311Z,22.17
2023-05-24T18:23:52.891Z,22.75
2023-05-24T18:26:24.103Z,10.57
2023-05-24T18:29:02.364Z,7.90
2023-05-24T18:31:34.866Z,14.98
2023-05-24T18:34:07.026Z,10.20
2023-05-24T18:36:38.025Z,19.25
2023-05-24T18:39:10.360Z,11.30
2023-05-24T18:41:42.431Z,13.70
2023-05-24T18:44:11.626Z,10.23
2023-05-24T18:46:42.145Z,6.90
2023-05-24T18:49:13.560Z,7.55
2023-05-24T18:51:45.527Z,13.83
2023-05-24T18:54:16.175Z,8.30
2023-05-24T18:56:45.943Z,15.87
2023-05-24T18:59:17.103Z,69.33
2023-05-24T19:01:46.807Z,14.00
2023-05-24T19:04:35.166Z,6.90
2023-05-24T19:07:04.576Z,7.97
2023-05-24T19:09:39.490Z,7.63
2023-05-24T19:12:11.086Z,7.23
2023-05-24T19:14:41.761Z,7.20
2023-05-24T19:17:11.075Z,5.77
2023-05-24T19:19:40.503Z,6.87
2023-05-24T19:22:11.160Z,6.47
2023-05-24T19:24:41.853Z,10.10
2023-05-24T19:27:11.385Z,8.47
2023-05-24T19:29:41.433Z,8.33
2023-05-24T19:32:11.648Z,8.13
2023-05-24T19:34:42.651Z,15.23
2023-05-24T19:37:12.927Z,11.33
2023-05-24T19:39:46.963Z,5.20
2023-05-24T19:42:16.369Z,11.93
2023-05-24T19:44:48.202Z,7.33
2023-05-24T19:47:18.092Z,6.87
2023-05-24T19:49:48.327Z,10.33
2023-05-24T19:52:20.392Z,8.50
2023-05-24T19:54:52.858Z,9.83
2023-05-24T19:57:22.904Z,10.97
2023-05-24T20:00:02.647Z,11.00
2023-05-24T20:02:33.390Z,7.93
2023-05-24T20:05:04.950Z,9.17
2023-05-24T20:10:22.419Z,8.43
2023-05-24T20:12:52.499Z,9.70
2023-05-24T20:15:27.995Z,8.80
2023-05-24T20:17:58.409Z,10.77
2023-05-24T20:20:29.304Z,7.33
2023-05-24T20:22:58.510Z,9.13
2023-05-24T20:25:29.479Z,14.67
2023-05-24T20:27:59.228Z,9.00
2023-05-24T20:30:32.450Z,8.77
2023-05-24T20:33:02.177Z,7.33
2023-05-24T20:35:31.928Z,7.93
2023-05-24T20:38:00.747Z,9.07
2023-05-24T20:40:32.478Z,11.17
2023-05-24T20:43:02.123Z,9.43
2023-05-24T20:45:31.547Z,10.90
2023-05-24T20:48:00.877Z,9.90
2023-05-24T20:50:30.772Z,11.27
2023-05-24T20:53:00.206Z,10.17
2023-05-24T20:55:31.465Z,11.17
2023-05-24T20:58:01.442Z,11.03
2023-05-24T21:00:30.524Z,11.13
2023-05-24T21:03:00.790Z,9.43
2023-05-24T21:05:30.288Z,10.93
2023-05-24T21:08:01.352Z,12.20
2023-05-24T21:10:36.041Z,12.53
2023-05-24T21:13:14.777Z,10.33
2023-05-24T21:15:45.810Z,12.87
2023-05-24T21:18:24.748Z,10.87
2023-05-24T21:20:56.612Z,12.33
2023-05-24T21:23:26.423Z,12.57
2023-05-24T21:25:57.384Z,12.13
2023-05-24T21:28:28.634Z,15.73
2023-05-24T21:30:58.703Z,11.13
2023-05-24T21:33:28.501Z,12.47
2023-05-24T21:35:58.588Z,11.20
2023-05-24T21:38:29.773Z,11.57
2023-05-24T21:41:00.591Z,10.50
2023-05-24T21:43:30.503Z,12.13
2023-05-24T21:46:00.338Z,11.20
2023-05-24T21:48:29.936Z,14.47
2023-05-24T21:50:59.347Z,12.93
2023-05-24T21:53:29.562Z,18.80
2023-05-24T21:56:01.514Z,12.37
2023-05-24T21:58:33.696Z,17.53
2023-05-24T22:01:08.270Z,11.47
2023-05-24T22:03:39.860Z,14.87
2023-05-24T22:06:15.126Z,13.60
2023-05-24T22:08:44.289Z,13.27
2023-05-24T22:11:18.360Z,15.60
2023-05-24T22:13:47.951Z,11.50
2023-05-24T22:16:19.624Z,17.17
2023-05-24T22:18:49.383Z,18.27
2023-05-24T22:21:21.601Z,17.50
2023-05-24T22:23:51.952Z,14.97
2023-05-24T22:26:25.486Z,14.33
2023-05-24T22:28:57.019Z,12.27
2023-05-24T22:31:35.445Z,17.60
2023-05-24T22:34:04.892Z,13.40
2023-05-24T22:36:38.425Z,17.67
2023-05-24T22:39:09.561Z,13.37
2023-05-24T22:41:45.819Z,16.10
2023-05-24T22:44:16.848Z,16.30
2023-05-24T22:46:46.745Z,16.37
2023-05-24T22:49:20.766Z,15.30
2023-05-24T22:51:50.688Z,15.77
2023-05-24T22:54:23.769Z,14.73
2023-05-24T22:56:54.554Z,14.73
2023-05-24T22:59:25.204Z,17.03
2023-05-24T23:02:02.063Z,20.70
2023-05-24T23:04:31.685Z,14.47
2023-05-24T23:07:02.213Z,18.37
2023-05-24T23:09:35.242Z,20.47
2023-05-24T23:12:19.793Z,17.20
2023-05-24T23:14:49.304Z,18.93
2023-05-24T23:17:23.135Z,13.07
2023-05-24T23:19:53.130Z,13.77
2023-05-24T23:22:24.822Z,17.10
2023-05-24T23:24:56.041Z,14.70
2023-05-24T23:27:31.933Z,16.60
2023-05-24T23:30:01.755Z,19.70
2023-05-24T23:32:32.153Z,16.73
2023-05-24T23:35:01.795Z,14.57
2023-05-24T23:37:31.191Z,18.63
2023-05-24T23:40:09.257Z,18.77
2023-05-24T23:42:42.679Z,14.93
2023-05-24T23:45:15.726Z,17.20
2023-05-24T23:47:45.936Z,16.53
2023-05-24T23:50:17.629Z,18.00
2023-05-24T23:52:48.420Z,17.03
2023-05-24T23:55:18.712Z,17.73
2023-05-24T23:57:49.992Z,19.10
